Time;durP1;ratioP1;P1;durP2;ratioP2;P2;SDS_P1;SDS_P2;PMS_P1;PMS_P2;Temp;Humidity;BMP_temperature;BMP_pressure;BME280_temperature;BME280_humidity;BME280_pressure;Samples;Min_cycle;Max_cycle;Signal;HPM_P1;HPM_P2
2022/07/08 00:01:33;;;;;;;8.57;0.55;;;14.40;99.90;;;;;;5046713;28;20052;-81
2022/07/08 00:03:59;;;;;;;6.35;0.88;;;14.40;99.90;;;;;;5046556;28;20061;-81
2022/07/08 00:06:24;;;;;;;7.32;1.55;;;14.30;99.90;;;;;;5045977;28;20041;-81
2022/07/08 00:08:50;;;;;;;4.05;0.85;;;14.30;99.90;;;;;;5046377;28;20044;-81
2022/07/08 00:11:16;;;;;;;4.38;0.80;;;14.30;99.90;;;;;;5047043;28;20073;-81
2022/07/08 00:13:41;;;;;;;7.95;0.98;;;14.20;99.90;;;;;;5045300;28;20053;-81
2022/07/08 00:16:07;;;;;;;7.43;1.35;;;14.20;99.90;;;;;;5029578;28;20084;-81
2022/07/08 00:18:32;;;;;;;8.60;1.42;;;14.20;99.90;;;;;;5044832;28;20067;-81
2022/07/08 00:20:58;;;;;;;5.00;0.40;;;14.10;99.90;;;;;;5028633;28;20045;-81
2022/07/08 00:23:23;;;;;;;3.90;0.60;;;14.10;99.90;;;;;;5028814;28;20103;-81
2022/07/08 00:25:49;;;;;;;9.68;0.93;;;14.10;99.90;;;;;;5046058;28;20068;-81
2022/07/08 00:28:15;;;;;;;2.90;0.82;;;14.10;99.90;;;;;;5050921;28;20044;-81
2022/07/08 00:30:40;;;;;;;7.38;2.25;;;14.10;99.90;;;;;;5044007;28;20096;-81
2022/07/08 00:33:06;;;;;;;7.20;1.10;;;14.10;99.90;;;;;;5039985;28;20120;-81
2022/07/08 00:35:31;;;;;;;5.30;1.67;;;14.00;99.90;;;;;;5040196;28;20041;-81
2022/07/08 00:37:57;;;;;;;6.40;0.73;;;14.00;99.90;;;;;;5040906;28;20045;-81
2022/07/08 00:40:23;;;;;;;9.65;1.60;;;14.00;99.90;;;;;;5039838;28;20455;-81
2022/07/08 00:42:48;;;;;;;5.47;0.85;;;14.00;99.90;;;;;;5039757;28;20300;-82
2022/07/08 00:45:17;;;;;;;5.05;1.00;;;14.00;99.90;;;;;;5039223;28;20045;-81
2022/07/08 00:47:43;;;;;;;5.60;0.88;;;14.00;99.90;;;;;;5025041;28;20101;-81
2022/07/08 00:50:10;;;;;;;6.30;0.77;;;14.00;99.90;;;;;;5038926;28;20091;-81
2022/07/08 00:52:39;;;;;;;5.70;0.85;;;14.00;99.90;;;;;;5043929;28;20052;-81
2022/07/08 00:55:06;;;;;;;9.98;1.33;;;14.00;99.90;;;;;;5043194;28;20041;-81
2022/07/08 00:57:33;;;;;;;4.85;1.15;;;14.00;99.90;;;;;;5044279;28;20045;-81
2022/07/08 00:59:59;;;;;;;4.63;0.95;;;14.00;99.90;;;;;;5029403;28;20045;-81
2022/07/08 01:02:24;;;;;;;8.32;0.60;;;14.00;99.90;;;;;;5043854;28;20048;-81
2022/07/08 01:04:51;;;;;;;4.30;1.10;;;14.00;99.90;;;;;;5025594;28;20056;-81
2022/07/08 01:07:17;;;;;;;4.30;0.68;;;14.10;99.90;;;;;;5055841;28;20037;-81
2022/07/08 01:09:42;;;;;;;8.27;0.55;;;14.00;99.90;;;;;;5049360;28;20033;-81
2022/07/08 01:12:08;;;;;;;3.72;0.55;;;14.00;99.90;;;;;;5042232;28;20033;-81
2022/07/08 01:14:34;;;;;;;9.13;0.80;;;14.00;99.90;;;;;;5025635;28;20041;-81
2022/07/08 01:17:00;;;;;;;5.95;0.75;;;14.00;99.90;;;;;;5041646;28;20495;-81
2022/07/08 01:19:25;;;;;;;7.03;0.80;;;14.00;99.90;;;;;;5039593;28;20455;-81
2022/07/08 01:21:51;;;;;;;5.53;0.90;;;13.90;99.90;;;;;;5041223;28;20152;-81
2022/07/08 01:24:18;;;;;;;5.95;0.93;;;13.90;99.90;;;;;;5042768;28;20072;-81
2022/07/08 01:26:44;;;;;;;6.70;0.50;;;13.90;99.90;;;;;;5024713;28;20041;-81
2022/07/08 01:29:11;;;;;;;7.43;1.33;;;13.80;99.90;;;;;;5041466;28;20051;-81
2022/07/08 01:31:37;;;;;;;10.75;2.90;;;13.70;99.90;;;;;;5042685;28;20046;-81
2022/07/08 01:34:03;;;;;;;6.85;1.20;;;13.60;99.90;;;;;;5042082;28;20069;-82
2022/07/08 01:36:28;;;;;;;4.05;0.77;;;13.50;99.90;;;;;;5022612;28;20041;-81
2022/07/08 01:38:54;;;;;;;6.88;1.00;;;13.40;99.90;;;;;;5040784;28;20037;-81
2022/07/08 01:41:19;;;;;;;5.15;1.10;;;13.40;99.90;;;;;;5041100;28;20491;-81
2022/07/08 01:43:45;;;;;;;6.13;0.98;;;13.30;99.90;;;;;;5025010;28;20048;-80
2022/07/08 01:46:10;;;;;;;10.30;1.48;;;13.20;99.90;;;;;;5047785;28;20472;-81
2022/07/08 01:48:37;;;;;;;2.88;0.38;;;13.20;99.90;;;;;;5040665;28;20038;-80
2022/07/08 01:51:03;;;;;;;5.15;0.95;;;13.20;99.90;;;;;;5038196;28;20471;-81
2022/07/08 01:53:29;;;;;;;6.18;0.80;;;13.20;99.90;;;;;;5025056;28;20439;-80
2022/07/08 01:55:54;;;;;;;6.55;1.38;;;13.30;99.90;;;;;;5041890;28;20044;-81
2022/07/08 01:58:20;;;;;;;8.20;0.60;;;13.30;99.90;;;;;;5058311;28;20558;-80
2022/07/08 02:00:46;;;;;;;3.95;0.90;;;13.20;99.90;;;;;;5058722;28;20419;-80
2022/07/08 02:03:12;;;;;;;5.35;0.55;;;13.20;99.90;;;;;;5057260;28;20128;-81
2022/07/08 02:05:37;;;;;;;6.40;1.15;;;13.10;99.90;;;;;;5053857;28;20061;-80
2022/07/08 02:08:04;;;;;;;8.40;1.05;;;13.00;99.90;;;;;;5038531;28;20059;-81
2022/07/08 02:12:18;;;;;;;8.57;1.92;;;13.00;99.90;;;;;;5037732;28;20068;-80
2022/07/08 02:13:17;;;;;;;5.75;0.50;;;12.90;99.90;;;;;;5038160;28;20180;-81
2022/07/08 02:15:44;;;;;;;7.85;1.00;;;12.80;99.90;;;;;;5036719;28;20042;-81
2022/07/08 02:18:10;;;;;;;7.50;1.15;;;12.80;99.90;;;;;;5038272;28;20124;-81
2022/07/08 02:20:36;;;;;;;8.50;1.10;;;12.80;99.90;;;;;;5037860;28;20095;-80
2022/07/08 02:23:02;;;;;;;7.85;1.02;;;12.70;99.90;;;;;;5042687;28;20081;-81
2022/07/08 02:25:27;;;;;;;2.80;0.52;;;12.80;99.90;;;;;;5023366;28;20041;-82
2022/07/08 02:27:53;;;;;;;4.25;0.50;;;12.70;99.90;;;;;;5047460;28;20120;-80
2022/07/08 02:30:18;;;;;;;6.53;1.13;;;12.80;99.90;;;;;;5041117;28;20120;-81
2022/07/08 02:32:44;;;;;;;4.60;0.70;;;12.80;99.90;;;;;;5040763;28;20048;-80
2022/07/08 02:35:09;;;;;;;5.18;1.35;;;12.80;99.90;;;;;;5040397;28;20041;-81
2022/07/08 02:37:35;;;;;;;7.18;1.85;;;12.80;99.90;;;;;;5025044;28;20045;-80
2022/07/08 02:40:01;;;;;;;4.22;1.00;;;12.70;99.90;;;;;;5023297;28;20400;-80
2022/07/08 02:42:26;;;;;;;9.27;1.10;;;12.70;99.90;;;;;;5040300;28;20067;-80
2022/07/08 02:44:52;;;;;;;6.78;0.90;;;12.60;99.90;;;;;;5039883;28;20045;-80
2022/07/08 02:47:17;;;;;;;6.07;0.98;;;12.50;99.90;;;;;;5046562;28;20094;-81
2022/07/08 02:49:43;;;;;;;3.55;0.50;;;12.50;99.90;;;;;;5041576;28;20041;-81
2022/07/08 02:52:08;;;;;;;5.63;0.90;;;12.40;99.90;;;;;;5040304;28;20038;-81
2022/07/08 02:54:34;;;;;;;6.47;0.50;;;12.40;99.90;;;;;;5041372;28;20048;-81
2022/07/08 02:56:59;;;;;;;6.15;0.93;;;12.40;99.90;;;;;;5047061;28;20042;-80
2022/07/08 02:59:25;;;;;;;3.85;0.85;;;12.30;99.90;;;;;;5041020;28;20071;-81
2022/07/08 03:01:50;;;;;;;7.50;1.05;;;12.30;99.90;;;;;;5042580;28;20107;-80
2022/07/08 03:04:16;;;;;;;6.10;1.08;;;12.30;99.90;;;;;;5041020;28;20041;-81
2022/07/08 03:06:42;;;;;;;7.57;0.80;;;12.20;99.90;;;;;;5042141;28;20060;-81
2022/07/08 03:09:07;;;;;;;4.47;0.70;;;12.30;99.90;;;;;;5036724;28;20038;-81
2022/07/08 03:11:33;;;;;;;4.18;0.60;;;12.20;99.90;;;;;;5040074;28;20144;-81
2022/07/08 03:13:58;;;;;;;6.10;1.25;;;12.20;99.90;;;;;;5040145;28;20148;-81
2022/07/08 03:16:24;;;;;;;6.13;0.93;;;12.20;99.90;;;;;;5037886;28;20042;-81
2022/07/08 03:18:49;;;;;;;4.45;1.58;;;12.20;99.90;;;;;;5039703;28;20052;-82
2022/07/08 03:21:15;;;;;;;6.32;0.73;;;12.20;99.90;;;;;;5040414;28;20065;-81
2022/07/08 03:23:41;;;;;;;8.38;0.95;;;12.20;99.90;;;;;;5023382;28;20049;-81
2022/07/08 03:26:06;;;;;;;8.00;1.35;;;12.10;99.90;;;;;;5037855;28;20124;-82
2022/07/08 03:28:32;;;;;;;8.45;1.27;;;12.10;99.90;;;;;;5022229;28;20585;-82
2022/07/08 03:30:58;;;;;;;5.63;1.27;;;12.10;99.90;;;;;;5038352;28;20037;-82
2022/07/08 03:33:24;;;;;;;6.20;1.08;;;12.10;99.90;;;;;;5038401;28;20128;-82
2022/07/08 03:35:49;;;;;;;7.32;1.35;;;12.10;99.90;;;;;;5019991;28;20061;-82
2022/07/08 03:38:16;;;;;;;4.53;0.68;;;12.20;99.90;;;;;;5036166;28;20049;-81
2022/07/08 03:43:26;;;;;;;5.05;1.05;;;12.20;99.90;;;;;;5035854;28;20057;-81
2022/07/08 03:45:51;;;;;;;7.85;1.15;;;12.30;99.90;;;;;;5036133;28;20094;-81
2022/07/08 03:48:17;;;;;;;11.48;1.75;;;12.30;99.90;;;;;;5035784;28;20205;-83
2022/07/08 03:50:42;;;;;;;8.05;2.03;;;12.30;99.90;;;;;;5034467;28;20554;-82
2022/07/08 03:53:08;;;;;;;5.15;1.10;;;12.30;99.90;;;;;;5034013;28;20037;-83
2022/07/08 03:55:33;;;;;;;7.18;1.05;;;12.30;99.90;;;;;;5033527;28;20036;-83
2022/07/08 03:57:59;;;;;;;5.32;1.40;;;12.30;99.90;;;;;;5037331;28;20041;-83
2022/07/08 04:00:25;;;;;;;4.90;2.00;;;12.40;99.90;;;;;;5032137;28;20041;-83
2022/07/08 04:02:50;;;;;;;5.25;0.90;;;12.40;99.90;;;;;;5016435;28;20472;-83
2022/07/08 04:05:16;;;;;;;5.25;0.80;;;12.40;99.90;;;;;;5015379;28;20118;-83
2022/07/08 04:07:42;;;;;;;9.70;0.98;;;12.50;99.90;;;;;;5033348;28;20033;-83
2022/07/08 04:10:08;;;;;;;10.50;1.33;;;12.50;99.90;;;;;;5033211;28;20472;-84
2022/07/08 04:12:33;;;;;;;4.38;0.90;;;12.60;99.90;;;;;;5033689;28;20069;-84
2022/07/08 04:14:59;;;;;;;6.82;1.25;;;12.60;99.90;;;;;;5037607;28;20424;-83
2022/07/08 04:17:25;;;;;;;4.55;1.02;;;12.60;99.90;;;;;;5038587;28;20095;-83
2022/07/08 04:19:51;;;;;;;4.32;1.20;;;12.70;99.90;;;;;;5031763;28;20037;-83
2022/07/08 04:22:17;;;;;;;5.50;0.95;;;12.70;99.90;;;;;;5032074;28;20038;-83
2022/07/08 04:24:42;;;;;;;4.65;1.30;;;12.80;99.90;;;;;;5032499;28;20060;-83
2022/07/08 04:27:08;;;;;;;10.45;1.48;;;12.80;99.90;;;;;;5031198;28;20124;-83
2022/07/08 04:29:33;;;;;;;5.38;0.98;;;12.90;99.90;;;;;;5032381;28;20080;-83
2022/07/08 04:31:59;;;;;;;5.32;1.40;;;12.90;99.90;;;;;;5030979;28;20080;-83
2022/07/08 04:34:24;;;;;;;4.28;0.70;;;12.90;99.90;;;;;;5032763;28;20041;-84
2022/07/08 04:36:50;;;;;;;4.78;1.13;;;12.90;99.90;;;;;;5023742;28;20566;-84
2022/07/08 04:39:15;;;;;;;8.35;1.13;;;13.00;99.90;;;;;;5041151;28;20037;-83
2022/07/08 04:41:41;;;;;;;8.20;1.30;;;13.00;99.90;;;;;;5047195;28;20064;-83
2022/07/08 04:44:07;;;;;;;4.13;1.20;;;13.10;99.90;;;;;;5045697;28;20033;-82
2022/07/08 04:46:32;;;;;;;6.78;1.48;;;13.20;99.90;;;;;;5045013;28;20047;-82
2022/07/08 04:48:58;;;;;;;10.75;1.52;;;13.20;99.90;;;;;;5043964;28;20041;-83
2022/07/08 04:51:23;;;;;;;7.75;1.25;;;13.20;99.90;;;;;;5023776;28;20451;-84
2022/07/08 04:53:49;;;;;;;7.47;2.05;;;13.30;99.90;;;;;;5021356;28;20048;-83
2022/07/08 04:56:15;;;;;;;8.50;1.40;;;13.30;99.90;;;;;;5026807;28;20068;-83
2022/07/08 04:58:40;;;;;;;11.70;1.60;;;13.30;99.90;;;;;;5022554;28;20430;-84
2022/07/08 05:01:07;;;;;;;7.10;1.80;;;13.40;99.90;;;;;;5034653;28;20045;-84
2022/07/08 05:03:32;;;;;;;10.52;1.25;;;13.40;99.90;;;;;;5034054;28;20080;-84
2022/07/08 05:05:58;;;;;;;5.45;1.55;;;13.50;99.90;;;;;;5038686;28;20046;-84
2022/07/08 05:08:23;;;;;;;9.85;1.35;;;13.50;99.90;;;;;;5034504;28;20492;-84
2022/07/08 05:10:49;;;;;;;8.68;1.20;;;13.60;99.90;;;;;;5039185;28;20555;-84
2022/07/08 05:13:15;;;;;;;11.23;2.90;;;13.60;99.90;;;;;;5033258;28;20034;-84
2022/07/08 05:15:40;;;;;;;8.70;3.08;;;13.70;99.90;;;;;;5033132;28;20052;-84
2022/07/08 05:18:06;;;;;;;8.25;2.88;;;13.80;99.90;;;;;;5034580;28;20059;-83
2022/07/08 05:20:32;;;;;;;5.07;1.20;;;14.00;99.90;;;;;;5035855;28;20068;-83
2022/07/08 05:22:57;;;;;;;6.97;1.17;;;14.20;99.90;;;;;;5036652;28;20415;-84
2022/07/08 05:25:24;;;;;;;6.68;2.08;;;14.30;99.90;;;;;;5036430;28;20120;-83
2022/07/08 05:27:49;;;;;;;2.53;0.63;;;14.50;99.90;;;;;;5034862;28;20496;-83
2022/07/08 05:30:15;;;;;;;5.00;1.08;;;14.60;99.90;;;;;;5020424;28;20034;-83
2022/07/08 05:32:42;;;;;;;9.07;1.52;;;14.70;99.90;;;;;;5034895;28;20116;-83
2022/07/08 05:35:09;;;;;;;8.57;2.80;;;14.80;99.90;;;;;;5036014;28;20037;-84
2022/07/08 05:37:38;;;;;;;6.90;0.88;;;14.80;99.90;;;;;;5036423;28;20041;-83
2022/07/08 05:40:17;;;;;;;10.50;2.45;;;14.90;99.90;;;;;;5036565;28;20175;-84
2022/07/08 05:42:44;;;;;;;3.92;1.00;;;15.00;99.90;;;;;;5035973;28;20045;-83
2022/07/08 05:45:14;;;;;;;7.18;1.15;;;15.10;99.90;;;;;;5037591;28;20041;-83
2022/07/08 05:47:41;;;;;;;7.22;1.00;;;15.10;99.90;;;;;;5005937;28;20044;-83
2022/07/08 05:50:08;;;;;;;10.20;1.45;;;15.20;99.90;;;;;;5035869;28;20041;-84
2022/07/08 05:52:36;;;;;;;5.90;1.10;;;15.30;99.90;;;;;;5016336;28;20077;-85
2022/07/08 05:55:04;;;;;;;9.68;1.88;;;15.50;99.90;;;;;;5021591;28;20487;-84
2022/07/08 05:57:29;;;;;;;8.20;2.17;;;15.60;99.90;;;;;;5034957;28;20052;-83
2022/07/08 05:59:55;;;;;;;5.68;1.55;;;15.80;99.90;;;;;;5032895;28;20129;-84
2022/07/08 06:02:21;;;;;;;3.60;1.02;;;15.90;99.90;;;;;;5033933;28;20041;-84
2022/07/08 06:04:46;;;;;;;6.50;1.15;;;16.00;99.90;;;;;;5034385;28;20045;-83
2022/07/08 06:07:12;;;;;;;8.60;1.25;;;16.00;99.90;;;;;;5036531;28;20033;-83
2022/07/08 06:09:38;;;;;;;7.82;1.25;;;16.00;99.90;;;;;;5034567;28;20037;-84
2022/07/08 06:12:05;;;;;;;3.63;1.13;;;16.10;99.90;;;;;;5034822;28;20155;-83
2022/07/08 06:14:30;;;;;;;6.65;1.27;;;16.10;99.90;;;;;;5034579;28;20095;-83
2022/07/08 06:16:56;;;;;;;11.55;1.80;;;16.20;99.90;;;;;;5016973;28;20470;-83
2022/07/08 06:19:22;;;;;;;5.72;0.80;;;16.30;99.90;;;;;;5027421;28;20045;-83
2022/07/08 06:21:48;;;;;;;7.05;0.70;;;16.30;99.90;;;;;;5036015;28;20099;-82
2022/07/08 06:24:14;;;;;;;9.35;1.38;;;16.40;99.90;;;;;;5036712;28;20037;-82
2022/07/08 06:26:43;;;;;;;9.48;1.20;;;16.40;99.90;;;;;;5044608;28;20036;-82
2022/07/08 06:29:09;;;;;;;13.27;1.45;;;16.60;99.90;;;;;;5035423;28;20102;-82
2022/07/08 06:31:36;;;;;;;3.88;1.45;;;16.60;99.90;;;;;;5037334;28;20041;-82
2022/07/08 06:34:02;;;;;;;5.13;0.85;;;16.60;99.90;;;;;;5037074;28;20054;-82
2022/07/08 06:36:28;;;;;;;10.05;2.17;;;16.70;99.90;;;;;;5041046;28;20046;-82
2022/07/08 06:38:54;;;;;;;4.80;1.05;;;16.80;99.90;;;;;;5039352;28;20044;-82
2022/07/08 06:41:19;;;;;;;5.68;0.55;;;16.80;99.90;;;;;;5037198;28;20045;-82
2022/07/08 06:43:45;;;;;;;7.15;1.42;;;16.80;99.90;;;;;;5034797;28;20071;-82
2022/07/08 06:46:12;;;;;;;6.32;1.48;;;16.90;99.90;;;;;;5036992;28;20052;-82
2022/07/08 06:48:37;;;;;;;8.23;0.60;;;17.00;99.90;;;;;;5037127;28;20037;-81
2022/07/08 06:51:03;;;;;;;8.27;1.13;;;17.00;99.90;;;;;;5037420;28;20557;-81
2022/07/08 06:54:34;;;;;;;7.75;1.00;;;17.10;99.90;;;;;;5037265;28;20042;-81
2022/07/08 06:56:14;;;;;;;;;;;17.20;99.90;;;;;;5038164;28;20380;-81
2022/07/08 06:58:40;;;;;;;9.23;0.85;;;17.30;99.90;;;;;;5033631;28;20435;-81
2022/07/08 07:01:06;;;;;;;7.43;1.25;;;17.40;99.90;;;;;;5018128;28;20107;-81
2022/07/08 07:03:31;;;;;;;2.78;0.47;;;17.40;99.90;;;;;;5034067;28;20391;-80
2022/07/08 07:05:57;;;;;;;7.88;0.80;;;17.50;99.90;;;;;;5045988;28;20143;-81
2022/07/08 07:08:22;;;;;;;4.55;1.40;;;17.60;99.90;;;;;;5056590;28;20045;-81
2022/07/08 07:10:48;;;;;;;5.50;1.40;;;17.60;99.90;;;;;;5049448;28;20037;-81
2022/07/08 07:13:13;;;;;;;9.50;1.55;;;17.70;99.90;;;;;;5026989;28;20065;-82
2022/07/08 07:15:39;;;;;;;3.30;0.88;;;17.70;99.90;;;;;;5016559;28;20042;-81
2022/07/08 07:18:04;;;;;;;4.75;0.65;;;17.80;99.90;;;;;;5030314;28;20056;-81
2022/07/08 07:20:30;;;;;;;5.25;0.88;;;18.00;99.90;;;;;;5035635;28;20049;-81
2022/07/08 07:22:55;;;;;;;11.57;2.13;;;18.10;99.90;;;;;;5035434;28;20135;-81
2022/07/08 07:25:21;;;;;;;7.43;0.80;;;18.10;99.90;;;;;;5030107;28;20181;-80
2022/07/08 07:27:47;;;;;;;4.82;2.25;;;18.00;99.90;;;;;;5028751;28;20049;-81
2022/07/08 07:30:12;;;;;;;7.45;0.90;;;18.00;99.90;;;;;;5017778;28;20052;-82
2022/07/08 07:32:38;;;;;;;9.07;0.60;;;18.00;99.90;;;;;;5037173;28;20158;-82
2022/07/08 07:35:04;;;;;;;6.53;0.95;;;18.00;99.90;;;;;;5041768;28;20041;-81
2022/07/08 07:37:35;;;;;;;4.53;1.27;;;18.20;99.90;;;;;;5040306;28;20045;-81
2022/07/08 07:40:02;;;;;;;3.88;0.75;;;18.30;99.90;;;;;;5039091;28;20073;-81
2022/07/08 07:42:28;;;;;;;4.63;0.85;;;18.30;99.90;;;;;;5040512;28;20041;-82
2022/07/08 07:44:54;;;;;;;5.05;1.17;;;18.30;99.90;;;;;;5039416;28;20048;-80
2022/07/08 07:47:19;;;;;;;5.32;0.68;;;18.40;99.90;;;;;;5040523;28;20105;-82
2022/07/08 07:49:45;;;;;;;2.83;0.40;;;18.40;99.90;;;;;;5034959;28;20092;-81
2022/07/08 07:52:10;;;;;;;126.22;86.40;;;18.60;99.90;;;;;;5028245;28;20044;-82
2022/07/08 07:54:36;;;;;;;20.10;10.70;;;18.80;99.90;;;;;;5040055;28;20029;-82
2022/07/08 07:57:01;;;;;;;5.07;0.93;;;19.00;99.90;;;;;;5040635;28;20048;-82
2022/07/08 07:59:27;;;;;;;14.75;7.80;;;19.10;99.90;;;;;;5024692;28;20086;-82
2022/07/08 08:01:53;;;;;;;8.20;1.27;;;19.20;99.90;;;;;;5038484;28;20057;-81
2022/07/08 08:04:19;;;;;;;12.85;6.60;;;19.10;99.90;;;;;;5046212;28;20476;-81
2022/07/08 08:06:44;;;;;;;6.47;2.67;;;19.10;99.90;;;;;;5050775;28;20034;-81
2022/07/08 08:09:10;;;;;;;5.93;1.48;;;19.10;99.90;;;;;;5047479;28;20049;-81
2022/07/08 08:11:35;;;;;;;4.63;1.75;;;19.10;99.90;;;;;;5035640;28;20044;-82
2022/07/08 08:14:01;;;;;;;7.72;1.10;;;19.10;99.90;;;;;;5035965;28;20033;-82
2022/07/08 08:16:26;;;;;;;4.72;0.95;;;19.10;99.90;;;;;;5038259;28;20124;-82
2022/07/08 08:18:52;;;;;;;4.43;0.50;;;19.00;99.90;;;;;;5039142;28;20037;-81
2022/07/08 08:21:17;;;;;;;7.63;0.52;;;19.00;99.90;;;;;;5020981;28;20141;-82
2022/07/08 08:23:43;;;;;;;4.50;1.05;;;18.90;99.90;;;;;;5038373;28;20044;-82
2022/07/08 08:26:08;;;;;;;7.35;0.73;;;18.90;99.90;;;;;;5032664;28;20042;-81
2022/07/08 08:28:34;;;;;;;4.90;0.65;;;19.00;99.90;;;;;;5026139;28;20123;-81
2022/07/08 08:30:59;;;;;;;4.63;0.57;;;19.10;99.90;;;;;;5042477;28;20315;-82
2022/07/08 08:33:25;;;;;;;6.63;1.40;;;19.10;99.90;;;;;;5036888;28;20034;-82
2022/07/08 08:35:51;;;;;;;3.72;0.45;;;19.10;99.90;;;;;;5027364;28;20034;-81
2022/07/08 08:38:16;;;;;;;6.38;1.10;;;19.10;99.90;;;;;;5039431;28;20058;-80
2022/07/08 08:40:42;;;;;;;4.72;0.60;;;18.90;99.90;;;;;;5039602;28;20053;-80
2022/07/08 08:43:08;;;;;;;6.80;0.43;;;18.90;99.90;;;;;;5037972;28;20046;-81
2022/07/08 08:45:34;;;;;;;4.90;0.50;;;18.90;99.90;;;;;;5051529;28;20052;-81
2022/07/08 08:48:06;;;;;;;17.95;10.20;;;19.00;99.90;;;;;;5036565;28;20132;-81
2022/07/08 08:53:22;;;;;;;58.65;37.60;;;19.30;99.90;;;;;;5036057;28;20049;-81
2022/07/08 08:55:50;;;;;;;8.20;2.72;;;19.40;99.90;;;;;;5034103;28;20040;-80
2022/07/08 08:58:16;;;;;;;13.27;7.00;;;19.50;99.90;;;;;;5035765;28;20128;-80
2022/07/08 09:00:43;;;;;;;29.77;18.38;;;19.60;99.90;;;;;;5046615;28;20418;-80
2022/07/08 09:03:09;;;;;;;24.77;18.48;;;19.70;99.90;;;;;;5042561;28;20053;-80
2022/07/08 09:05:34;;;;;;;15.65;9.50;;;19.80;99.90;;;;;;5036844;28;20057;-80
2022/07/08 09:08:00;;;;;;;5.38;0.75;;;19.80;99.90;;;;;;5036562;28;20503;-81
2022/07/08 09:10:44;;;;;;;12.35;0.95;;;19.80;99.90;;;;;;5037252;28;20068;-80
2022/07/08 09:13:12;;;;;;;7.32;1.30;;;19.70;99.90;;;;;;5038340;28;20409;-81
2022/07/08 09:15:46;;;;;;;4.97;0.88;;;19.70;99.90;;;;;;5039297;28;20056;-82
2022/07/08 09:18:14;;;;;;;7.40;1.52;;;19.60;99.90;;;;;;5023085;28;20127;-82
2022/07/08 09:20:53;;;;;;;3.67;0.50;;;19.50;99.90;;;;;;5039185;28;20041;-82
2022/07/08 09:23:23;;;;;;;4.93;0.70;;;19.50;99.90;;;;;;5022218;28;20517;-81
2022/07/08 09:25:51;;;;;;;4.28;1.35;;;19.50;99.90;;;;;;5036514;28;20034;-82
2022/07/08 09:28:39;;;;;;;5.47;1.00;;;19.50;99.90;;;;;;5035849;28;20048;-82
2022/07/08 09:31:10;;;;;;;7.00;0.77;;;19.50;99.90;;;;;;5035563;28;20046;-81
2022/07/08 09:33:36;;;;;;;5.68;1.40;;;19.50;99.90;;;;;;5045714;28;20506;-82
2022/07/08 09:36:04;;;;;;;4.93;1.23;;;19.50;99.90;;;;;;5039393;28;20040;-81
2022/07/08 09:38:35;;;;;;;7.15;0.90;;;19.50;99.90;;;;;;5041075;28;20562;-82
2022/07/08 09:41:19;;;;;;;4.13;0.90;;;19.60;99.90;;;;;;5028310;28;20037;-82
2022/07/08 09:43:49;;;;;;;7.45;1.13;;;19.70;99.90;;;;;;5032412;28;20029;-82
2022/07/08 09:46:15;;;;;;;3.80;1.45;;;19.80;99.90;;;;;;5038479;28;20056;-80
2022/07/08 09:48:41;;;;;;;6.38;1.33;;;19.90;99.90;;;;;;5036669;28;20057;-80
2022/07/08 09:51:08;;;;;;;2.20;0.63;;;19.90;99.90;;;;;;5036546;28;20139;-80
2022/07/08 09:53:35;;;;;;;7.93;0.93;;;20.00;99.90;;;;;;5038801;28;20041;-82
2022/07/08 09:56:02;;;;;;;6.10;1.15;;;20.10;99.90;;;;;;5027828;28;20041;-80
2022/07/08 09:58:29;;;;;;;6.90;0.95;;;20.20;99.90;;;;;;5016968;28;20500;-80
2022/07/08 10:00:56;;;;;;;5.25;1.75;;;20.30;99.90;;;;;;5017274;28;20053;-81
2022/07/08 10:03:23;;;;;;;3.35;0.98;;;20.30;99.90;;;;;;5015660;28;20050;-80
2022/07/08 10:05:49;;;;;;;2.75;0.70;;;20.40;99.90;;;;;;5028827;28;20055;-81
2022/07/08 10:08:17;;;;;;;5.93;0.80;;;20.50;99.90;;;;;;5040900;28;20077;-81
2022/07/08 10:10:48;;;;;;;4.45;0.80;;;20.50;99.90;;;;;;5041317;28;20040;-81
2022/07/08 10:13:15;;;;;;;3.47;0.80;;;20.50;99.90;;;;;;5045631;28;20033;-81
2022/07/08 10:15:42;;;;;;;5.47;0.80;;;20.50;99.90;;;;;;5022126;28;20395;-81
2022/07/08 10:18:22;;;;;;;4.75;0.93;;;20.50;99.90;;;;;;5039983;28;20045;-81
2022/07/08 10:20:52;;;;;;;5.20;1.38;;;20.40;99.90;;;;;;5041660;28;20100;-81
2022/07/08 10:23:27;;;;;;;6.57;1.13;;;20.30;99.90;;;;;;5038726;28;20617;-82
2022/07/08 10:25:55;;;;;;;;;;;20.10;99.90;;;;;;5036772;28;20116;-81
2022/07/08 10:28:37;;;;;;;4.70;0.93;;;20.00;99.90;;;;;;5035800;28;20379;-82
2022/07/08 10:31:16;;;;;;;7.28;1.08;;;20.20;99.90;;;;;;5038729;28;20069;-82
2022/07/08 10:33:45;;;;;;;8.00;0.93;;;20.30;99.90;;;;;;5036212;28;21435;-82
2022/07/08 10:36:11;;;;;;;6.75;0.88;;;20.40;99.90;;;;;;5035558;28;20295;-82
2022/07/08 10:38:39;;;;;;;4.43;1.00;;;20.70;99.90;;;;;;5031915;28;20132;-81
2022/07/08 10:41:18;;;;;;;3.67;0.60;;;21.10;99.90;;;;;;5043852;28;20108;-80
2022/07/08 10:43:52;;;;;;;5.22;1.13;;;21.40;99.90;;;;;;5036284;28;20136;-82
2022/07/08 10:46:18;;;;;;;3.97;0.88;;;21.50;99.90;;;;;;5028759;28;20091;-80
2022/07/08 10:48:44;;;;;;;6.20;1.02;;;21.50;99.90;;;;;;5035323;28;20088;-81
2022/07/08 10:51:19;;;;;;;3.38;0.70;;;21.60;99.90;;;;;;5019709;28;20459;-80
2022/07/08 10:53:52;;;;;;;6.75;1.00;;;21.80;99.90;;;;;;5035461;28;20069;-81
2022/07/08 10:56:58;;;;;;;5.53;1.55;;;22.10;99.90;;;;;;5037292;28;20527;-82
2022/07/08 10:59:29;;;;;;;21.80;13.13;;;22.40;99.90;;;;;;5036398;28;20500;-80
2022/07/08 11:02:13;;;;;;;19.50;11.85;;;22.40;99.90;;;;;;5032431;28;20045;-80
2022/07/08 11:04:40;;;;;;;3.75;0.88;;;22.60;99.90;;;;;;5032732;28;20033;-81
2022/07/08 11:07:18;;;;;;;5.38;1.50;;;23.10;99.90;;;;;;5036484;28;20053;-81
2022/07/08 11:10:01;;;;;;;3.92;1.33;;;23.30;99.90;;;;;;5032760;28;20046;-83
2022/07/08 11:12:34;;;;;;;4.70;0.47;;;23.30;99.90;;;;;;5034623;28;20352;-82
2022/07/08 11:15:01;;;;;;;4.63;1.15;;;23.30;99.90;;;;;;5037718;28;20045;-82
2022/07/08 11:17:32;;;;;;;7.40;1.30;;;23.30;99.90;;;;;;5040208;28;20728;-81
2022/07/08 11:20:00;;;;;;;3.92;0.60;;;23.10;99.90;;;;;;5039062;28;20045;-82
2022/07/08 11:22:27;;;;;;;3.67;0.85;;;22.90;99.90;;;;;;5038552;28;20096;-81
2022/07/08 11:24:57;;;;;;;3.70;0.77;;;22.80;99.90;;;;;;5040482;28;20038;-82
2022/07/08 11:27:28;;;;;;;4.57;1.27;;;22.90;99.90;;;;;;5033884;28;20127;-81
2022/07/08 11:29:55;;;;;;;4.53;0.85;;;23.20;99.90;;;;;;5036004;28;20043;-81
2022/07/08 11:32:23;;;;;;;6.78;1.08;;;23.30;99.90;;;;;;5035041;28;20047;-81
2022/07/08 11:34:50;;;;;;;5.15;1.25;;;23.50;99.90;;;;;;5037284;28;20029;-82
2022/07/08 11:37:16;;;;;;;6.60;0.63;;;23.50;99.90;;;;;;5029437;28;20775;-82
2022/07/08 11:39:42;;;;;;;2.85;0.55;;;23.40;99.90;;;;;;5034797;28;20164;-84
2022/07/08 11:42:09;;;;;;;6.97;0.80;;;23.30;99.90;;;;;;5033015;28;20427;-81
2022/07/08 11:44:35;;;;;;;5.53;0.82;;;23.00;99.90;;;;;;5036403;28;20044;-79
2022/07/08 11:47:00;;;;;;;2.20;1.10;;;22.90;99.90;;;;;;5042778;28;20037;-80
2022/07/08 11:49:26;;;;;;;3.95;1.08;;;22.90;99.90;;;;;;5039524;28;20051;-83
2022/07/08 11:51:56;;;;;;;4.40;0.60;;;22.90;99.90;;;;;;5043134;28;20042;-81
2022/07/08 11:54:24;;;;;;;2.65;0.75;;;23.00;99.90;;;;;;5041580;28;20090;-80
2022/07/08 11:56:54;;;;;;;5.07;0.98;;;22.90;99.90;;;;;;5042834;28;20036;-80
2022/07/08 11:59:21;;;;;;;2.58;0.88;;;23.20;99.90;;;;;;5045569;28;20044;-81
2022/07/08 12:01:47;;;;;;;3.55;0.98;;;23.40;99.90;;;;;;5044050;28;20041;-80
2022/07/08 12:04:12;;;;;;;4.03;1.88;;;23.90;99.90;;;;;;5038153;28;20045;-82
2022/07/08 12:06:48;;;;;;;6.30;4.53;;;24.50;99.90;;;;;;5042399;28;20041;-81
2022/07/08 12:09:15;;;;;;;4.07;1.20;;;25.00;99.90;;;;;;5043662;28;20033;-81
2022/07/08 12:11:44;;;;;;;7.28;1.42;;;25.20;99.90;;;;;;5041160;28;20490;-81
2022/07/08 12:14:10;;;;;;;3.40;0.80;;;25.40;99.90;;;;;;5023529;28;20038;-81
2022/07/08 12:16:48;;;;;;;4.57;0.75;;;25.70;99.90;;;;;;5035311;28;20033;-81
2022/07/08 12:19:25;;;;;;;4.05;1.00;;;25.60;99.90;;;;;;5039723;28;20056;-80
2022/07/08 12:21:52;;;;;;;2.63;1.23;;;25.40;99.90;;;;;;5036384;28;20595;-81
2022/07/08 12:24:26;;;;;;;2.20;1.27;;;25.00;99.90;;;;;;5045725;28;20036;-80
2022/07/08 12:26:56;;;;;;;2.57;0.87;;;24.80;99.90;;;;;;5043837;28;20045;-80
2022/07/08 12:29:22;;;;;;;3.33;0.77;;;25.10;99.90;;;;;;5040497;28;20064;-80
2022/07/08 12:31:48;;;;;;;3.20;0.57;;;25.50;99.90;;;;;;5042609;28;20045;-81
2022/07/08 12:34:19;;;;;;;3.50;0.65;;;25.60;99.90;;;;;;5044104;28;20064;-81
2022/07/08 12:36:45;;;;;;;3.63;0.93;;;25.80;99.90;;;;;;5025024;28;20475;-80
2022/07/08 12:39:12;;;;;;;4.75;0.90;;;25.90;99.90;;;;;;5043210;28;20526;-81
2022/07/08 12:41:38;;;;;;;7.50;6.47;;;25.40;99.90;;;;;;5036773;28;20068;-81
2022/07/08 12:44:35;;;;;;;3.03;0.63;;;25.00;99.90;;;;;;5040128;28;20041;-81
2022/07/08 12:47:03;;;;;;;10.48;5.90;;;24.90;99.90;;;;;;5040355;28;20049;-81
2022/07/08 12:49:30;;;;;;;4.28;1.10;;;24.60;99.90;;;;;;5039889;28;20128;-80
2022/07/08 12:51:57;;;;;;;4.38;0.55;;;24.40;99.90;;;;;;5037984;28;20048;-79